sensor_id;sensor_type;location;lat;lon;timestamp;pressure;altitude;pressure_sealevel;temperature;humidity
36454;BME280;22478;51.740;-1.314;2023-02-12T00:02:10;102459.08;;;7.77;76.54
36454;BME280;22478;51.740;-1.314;2023-02-12T00:04:37;102457.57;;;7.82;77.95
36454;BME280;22478;51.740;-1.314;2023-02-12T00:07:05;102455.29;;;7.97;77.82
36454;BME280;22478;51.740;-1.314;2023-02-12T00:09:32;102459.20;;;8.08;78.58
36454;BME280;22478;51.740;-1.314;2023-02-12T00:11:59;102465.62;;;7.51;78.17
36454;BME280;22478;51.740;-1.314;2023-02-12T00:14:27;102459.29;;;8.21;74.44
36454;BME280;22478;51.740;-1.314;2023-02-12T00:16:54;102451.60;;;8.07;73.75
36454;BME280;22478;51.740;-1.314;2023-02-12T00:19:21;102455.84;;;7.89;74.15
36454;BME280;22478;51.740;-1.314;2023-02-12T00:21:48;102452.52;;;8.65;73.77
36454;BME280;22478;51.740;-1.314;2023-02-12T00:24:14;102451.01;;;8.50;73.91
36454;BME280;22478;51.740;-1.314;2023-02-12T00:26:42;102457.10;;;6.16;85.52
36454;BME280;22478;51.740;-1.314;2023-02-12T00:29:10;102457.96;;;8.09;77.09
36454;BME280;22478;51.740;-1.314;2023-02-12T00:31:37;102457.72;;;8.23;75.09
36454;BME280;22478;51.740;-1.314;2023-02-12T00:34:05;102453.64;;;8.28;73.66
36454;BME280;22478;51.740;-1.314;2023-02-12T00:36:32;102451.12;;;8.11;73.88
36454;BME280;22478;51.740;-1.314;2023-02-12T00:38:59;102448.58;;;8.53;75.63
36454;BME280;22478;51.740;-1.314;2023-02-12T00:41:27;102454.11;;;9.39;72.09
36454;BME280;22478;51.740;-1.314;2023-02-12T00:43:55;102453.56;;;9.02;72.01
36454;BME280;22478;51.740;-1.314;2023-02-12T00:46:23;102448.80;;;9.27;72.35
36454;BME280;22478;51.740;-1.314;2023-02-12T00:48:50;102447.47;;;9.08;73.64
36454;BME280;22478;51.740;-1.314;2023-02-12T00:51:17;102451.94;;;8.52;73.22
36454;BME280;22478;51.740;-1.314;2023-02-12T00:53:45;102449.01;;;9.20;73.30
36454;BME280;22478;51.740;-1.314;2023-02-12T00:56:12;102452.08;;;8.85;73.55
36454;BME280;22478;51.740;-1.314;2023-02-12T00:58:39;102457.52;;;8.81;73.49
36454;BME280;22478;51.740;-1.314;2023-02-12T01:01:06;102452.95;;;8.73;72.39
36454;BME280;22478;51.740;-1.314;2023-02-12T01:03:34;102444.74;;;8.13;74.55
36454;BME280;22478;51.740;-1.314;2023-02-12T01:06:01;102441.80;;;8.60;75.48
36454;BME280;22478;51.740;-1.314;2023-02-12T01:08:28;102445.79;;;8.43;73.01
36454;BME280;22478;51.740;-1.314;2023-02-12T01:10:57;102445.37;;;9.23;73.69
36454;BME280;22478;51.740;-1.314;2023-02-12T01:13:25;102443.16;;;8.44;74.65
36454;BME280;22478;51.740;-1.314;2023-02-12T01:16:13;102440.18;;;8.89;73.70
36454;BME280;22478;51.740;-1.314;2023-02-12T01:18:41;102435.96;;;8.75;73.25
36454;BME280;22478;51.740;-1.314;2023-02-12T01:21:10;102436.61;;;8.17;75.44
36454;BME280;22478;51.740;-1.314;2023-02-12T01:23:38;102440.24;;;9.01;74.81
36454;BME280;22478;51.740;-1.314;2023-02-12T01:26:05;102440.61;;;9.54;72.30
36454;BME280;22478;51.740;-1.314;2023-02-12T01:28:32;102436.70;;;9.21;73.21
36454;BME280;22478;51.740;-1.314;2023-02-12T01:31:00;102433.51;;;8.46;74.94
36454;BME280;22478;51.740;-1.314;2023-02-12T01:33:27;102431.95;;;9.39;71.78
36454;BME280;22478;51.740;-1.314;2023-02-12T01:35:55;102434.51;;;8.38;75.00
36454;BME280;22478;51.740;-1.314;2023-02-12T01:38:22;102438.87;;;8.83;73.45
36454;BME280;22478;51.740;-1.314;2023-02-12T01:40:49;102436.21;;;8.56;74.04
36454;BME280;22478;51.740;-1.314;2023-02-12T01:43:17;102427.81;;;8.34;72.55
36454;BME280;22478;51.740;-1.314;2023-02-12T01:45:49;102430.25;;;8.64;74.48
36454;BME280;22478;51.740;-1.314;2023-02-12T01:48:17;102440.62;;;8.95;73.83
36454;BME280;22478;51.740;-1.314;2023-02-12T01:50:47;102434.18;;;8.80;73.64
36454;BME280;22478;51.740;-1.314;2023-02-12T01:53:16;102429.70;;;8.92;71.87
36454;BME280;22478;51.740;-1.314;2023-02-12T01:55:45;102438.74;;;6.83;81.19
36454;BME280;22478;51.740;-1.314;2023-02-12T01:58:14;102435.91;;;8.78;74.36
36454;BME280;22478;51.740;-1.314;2023-02-12T02:00:42;102440.76;;;8.02;76.37
36454;BME280;22478;51.740;-1.314;2023-02-12T02:03:10;102441.30;;;8.53;76.03
36454;BME280;22478;51.740;-1.314;2023-02-12T02:05:43;102440.46;;;8.57;74.31
36454;BME280;22478;51.740;-1.314;2023-02-12T02:08:12;102437.62;;;8.46;74.84
36454;BME280;22478;51.740;-1.314;2023-02-12T02:10:40;102441.92;;;8.34;74.27
36454;BME280;22478;51.740;-1.314;2023-02-12T02:13:07;102437.69;;;8.80;73.06
36454;BME280;22478;51.740;-1.314;2023-02-12T02:15:36;102435.50;;;8.92;72.12
36454;BME280;22478;51.740;-1.314;2023-02-12T02:18:09;102436.20;;;8.10;74.23
36454;BME280;22478;51.740;-1.314;2023-02-12T02:20:52;102441.98;;;8.13;75.02
36454;BME280;22478;51.740;-1.314;2023-02-12T02:23:38;102436.34;;;8.28;73.65
36454;BME280;22478;51.740;-1.314;2023-02-12T02:26:27;102432.75;;;8.30;74.31
36454;BME280;22478;51.740;-1.314;2023-02-12T02:29:20;102449.27;;;4.56;95.72
36454;BME280;22478;51.740;-1.314;2023-02-12T02:31:55;102439.85;;;8.12;81.33
36454;BME280;22478;51.740;-1.314;2023-02-12T02:34:30;102434.03;;;7.37;79.29
36454;BME280;22478;51.740;-1.314;2023-02-12T02:37:08;102433.76;;;8.41;77.14
36454;BME280;22478;51.740;-1.314;2023-02-12T02:39:44;102447.39;;;7.40;80.83
36454;BME280;22478;51.740;-1.314;2023-02-12T02:42:17;102440.99;;;6.82;83.55
36454;BME280;22478;51.740;-1.314;2023-02-12T02:44:52;102436.29;;;6.97;81.65
36454;BME280;22478;51.740;-1.314;2023-02-12T02:47:23;102441.86;;;7.56;81.72
36454;BME280;22478;51.740;-1.314;2023-02-12T02:49:55;102445.70;;;6.27;84.20
36454;BME280;22478;51.740;-1.314;2023-02-12T02:52:27;102441.81;;;6.53;83.83
36454;BME280;22478;51.740;-1.314;2023-02-12T02:55:02;102439.13;;;7.48;80.71
36454;BME280;22478;51.740;-1.314;2023-02-12T02:57:35;102441.03;;;7.43;81.23
36454;BME280;22478;51.740;-1.314;2023-02-12T03:00:11;102437.10;;;7.22;82.38
36454;BME280;22478;51.740;-1.314;2023-02-12T03:02:42;102431.72;;;7.32;81.49
36454;BME280;22478;51.740;-1.314;2023-02-12T03:05:16;102432.62;;;7.01;82.34
36454;BME280;22478;51.740;-1.314;2023-02-12T03:07:53;102428.02;;;7.20;79.11
36454;BME280;22478;51.740;-1.314;2023-02-12T03:10:25;102425.16;;;7.26;79.10
36454;BME280;22478;51.740;-1.314;2023-02-12T03:12:58;102427.78;;;7.21;80.56
36454;BME280;22478;51.740;-1.314;2023-02-12T03:15:33;102419.36;;;7.75;78.88
36454;BME280;22478;51.740;-1.314;2023-02-12T03:18:05;102419.84;;;7.53;77.13
36454;BME280;22478;51.740;-1.314;2023-02-12T03:20:36;102418.87;;;7.59;75.39
36454;BME280;22478;51.740;-1.314;2023-02-12T03:23:13;102415.58;;;7.53;75.94
36454;BME280;22478;51.740;-1.314;2023-02-12T03:25:48;102411.07;;;7.85;74.16
36454;BME280;22478;51.740;-1.314;2023-02-12T03:28:19;102407.57;;;8.43;75.03
36454;BME280;22478;51.740;-1.314;2023-02-12T03:30:53;102404.26;;;8.01;77.02
36454;BME280;22478;51.740;-1.314;2023-02-12T03:33:28;102401.00;;;7.12;79.92
36454;BME280;22478;51.740;-1.314;2023-02-12T03:36:05;102401.31;;;7.96;77.38
36454;BME280;22478;51.740;-1.314;2023-02-12T03:38:37;102411.45;;;7.07;78.64
36454;BME280;22478;51.740;-1.314;2023-02-12T03:41:10;102410.07;;;7.70;78.15
36454;BME280;22478;51.740;-1.314;2023-02-12T03:43:46;102405.81;;;7.48;78.41
36454;BME280;22478;51.740;-1.314;2023-02-12T03:46:19;102416.19;;;6.53;82.34
36454;BME280;22478;51.740;-1.314;2023-02-12T03:48:55;102417.44;;;5.88;83.56
36454;BME280;22478;51.740;-1.314;2023-02-12T03:51:29;102408.34;;;7.47;81.14
36454;BME280;22478;51.740;-1.314;2023-02-12T03:54:00;102411.79;;;6.90;80.96
36454;BME280;22478;51.740;-1.314;2023-02-12T03:56:32;102413.65;;;7.03;80.94
36454;BME280;22478;51.740;-1.314;2023-02-12T03:59:00;102410.73;;;7.53;79.52
36454;BME280;22478;51.740;-1.314;2023-02-12T04:01:30;102413.86;;;5.69;82.28
36454;BME280;22478;51.740;-1.314;2023-02-12T04:03:58;102419.55;;;6.69;80.30
36454;BME280;22478;51.740;-1.314;2023-02-12T04:06:28;102416.53;;;6.06;82.28
36454;BME280;22478;51.740;-1.314;2023-02-12T04:08:57;102421.86;;;5.30;89.82
36454;BME280;22478;51.740;-1.314;2023-02-12T04:11:33;102417.67;;;6.92;82.44
36454;BME280;22478;51.740;-1.314;2023-02-12T04:14:15;102421.10;;;5.89;83.75
36454;BME280;22478;51.740;-1.314;2023-02-12T04:16:47;102416.05;;;6.69;83.12
36454;BME280;22478;51.740;-1.314;2023-02-12T04:19:23;102416.98;;;6.67;84.24
36454;BME280;22478;51.740;-1.314;2023-02-12T04:22:10;102428.37;;;2.91;99.61
36454;BME280;22478;51.740;-1.314;2023-02-12T04:24:47;102416.25;;;6.54;87.09
36454;BME280;22478;51.740;-1.314;2023-02-12T04:27:21;102421.62;;;6.14;85.09
36454;BME280;22478;51.740;-1.314;2023-02-12T04:29:53;102423.84;;;5.82;85.39
36454;BME280;22478;51.740;-1.314;2023-02-12T04:32:28;102423.59;;;6.37;85.17
36454;BME280;22478;51.740;-1.314;2023-02-12T04:35:01;102422.58;;;7.55;80.87
36454;BME280;22478;51.740;-1.314;2023-02-12T04:37:35;102424.76;;;6.16;83.04
36454;BME280;22478;51.740;-1.314;2023-02-12T04:40:08;102429.58;;;6.47;86.11
36454;BME280;22478;51.740;-1.314;2023-02-12T04:42:41;102440.55;;;5.61;91.36
36454;BME280;22478;51.740;-1.314;2023-02-12T04:45:09;102432.56;;;6.21;88.07
36454;BME280;22478;51.740;-1.314;2023-02-12T04:47:37;102429.34;;;6.15;86.37
36454;BME280;22478;51.740;-1.314;2023-02-12T04:50:05;102431.94;;;6.64;85.07
36454;BME280;22478;51.740;-1.314;2023-02-12T04:52:32;102425.24;;;6.92;83.82
36454;BME280;22478;51.740;-1.314;2023-02-12T04:55:00;102430.28;;;6.34;82.33
36454;BME280;22478;51.740;-1.314;2023-02-12T04:57:27;102431.74;;;6.79;82.63
36454;BME280;22478;51.740;-1.314;2023-02-12T04:59:54;102429.11;;;6.58;82.49
36454;BME280;22478;51.740;-1.314;2023-02-12T05:02:22;102427.53;;;6.66;82.31
36454;BME280;22478;51.740;-1.314;2023-02-12T05:04:49;102428.09;;;6.54;84.09
36454;BME280;22478;51.740;-1.314;2023-02-12T05:07:17;102425.54;;;6.81;81.38
36454;BME280;22478;51.740;-1.314;2023-02-12T05:09:45;102422.91;;;7.22;79.07
36454;BME280;22478;51.740;-1.314;2023-02-12T05:12:12;102421.53;;;7.34;79.26
36454;BME280;22478;51.740;-1.314;2023-02-12T05:14:40;102424.65;;;5.13;86.74
36454;BME280;22478;51.740;-1.314;2023-02-12T05:17:07;102427.52;;;6.90;79.42
36454;BME280;22478;51.740;-1.314;2023-02-12T05:19:34;102422.58;;;7.66;77.67
36454;BME280;22478;51.740;-1.314;2023-02-12T05:22:01;102423.36;;;7.26;77.92
36454;BME280;22478;51.740;-1.314;2023-02-12T05:24:29;102422.37;;;6.75;78.22
36454;BME280;22478;51.740;-1.314;2023-02-12T05:26:56;102416.25;;;6.98;77.27
36454;BME280;22478;51.740;-1.314;2023-02-12T05:29:23;102410.50;;;8.45;75.46
36454;BME280;22478;51.740;-1.314;2023-02-12T05:31:50;102417.24;;;8.00;74.77
36454;BME280;22478;51.740;-1.314;2023-02-12T05:34:18;102419.56;;;7.87;78.06
36454;BME280;22478;51.740;-1.314;2023-02-12T05:36:44;102415.27;;;8.03;75.78
36454;BME280;22478;51.740;-1.314;2023-02-12T05:39:12;102416.34;;;8.30;76.59
36454;BME280;22478;51.740;-1.314;2023-02-12T05:41:39;102414.99;;;6.98;75.99
36454;BME280;22478;51.740;-1.314;2023-02-12T05:44:06;102418.08;;;7.13;76.67
36454;BME280;22478;51.740;-1.314;2023-02-12T05:46:34;102414.12;;;7.66;75.45
36454;BME280;22478;51.740;-1.314;2023-02-12T05:49:01;102418.21;;;6.75;79.39
36454;BME280;22478;51.740;-1.314;2023-02-12T05:51:28;102418.82;;;7.27;78.05
36454;BME280;22478;51.740;-1.314;2023-02-12T05:53:58;102414.35;;;8.00;76.47
36454;BME280;22478;51.740;-1.314;2023-02-12T05:56:28;102415.28;;;7.59;76.39
36454;BME280;22478;51.740;-1.314;2023-02-12T05:58:57;102418.55;;;7.44;77.89
36454;BME280;22478;51.740;-1.314;2023-02-12T06:01:27;102414.57;;;7.50;77.54
36454;BME280;22478;51.740;-1.314;2023-02-12T06:03:56;102407.44;;;7.70;75.48
36454;BME280;22478;51.740;-1.314;2023-02-12T06:06:24;102403.77;;;7.38;75.45
36454;BME280;22478;51.740;-1.314;2023-02-12T06:08:51;102400.54;;;8.70;72.64
36454;BME280;22478;51.740;-1.314;2023-02-12T06:11:19;102404.85;;;8.74;72.56
36454;BME280;22478;51.740;-1.314;2023-02-12T06:13:47;102404.33;;;6.74;74.99
36454;BME280;22478;51.740;-1.314;2023-02-12T06:16:17;102401.34;;;7.29;75.42
36454;BME280;22478;51.740;-1.314;2023-02-12T06:18:46;102402.35;;;6.19;76.41
36454;BME280;22478;51.740;-1.314;2023-02-12T06:21:14;102397.02;;;7.66;75.31
36454;BME280;22478;51.740;-1.314;2023-02-12T06:23:41;102393.36;;;7.75;73.54
36454;BME280;22478;51.740;-1.314;2023-02-12T06:26:09;102390.87;;;8.20;73.95
36454;BME280;22478;51.740;-1.314;2023-02-12T06:28:36;102391.27;;;7.93;75.43
36454;BME280;22478;51.740;-1.314;2023-02-12T06:31:04;102391.84;;;5.96;75.07
36454;BME280;22478;51.740;-1.314;2023-02-12T06:33:31;102389.96;;;7.33;74.25
36454;BME280;22478;51.740;-1.314;2023-02-12T06:36:02;102385.72;;;7.30;73.20
36454;BME280;22478;51.740;-1.314;2023-02-12T06:38:29;102384.63;;;7.00;78.82
36454;BME280;22478;51.740;-1.314;2023-02-12T06:40:56;102384.83;;;7.06;74.09
36454;BME280;22478;51.740;-1.314;2023-02-12T06:43:27;102385.97;;;7.74;75.78
36454;BME280;22478;51.740;-1.314;2023-02-12T06:45:54;102382.47;;;7.46;76.11
36454;BME280;22478;51.740;-1.314;2023-02-12T06:48:22;102386.37;;;6.79;75.80
36454;BME280;22478;51.740;-1.314;2023-02-12T06:50:49;102387.51;;;7.39;76.43
36454;BME280;22478;51.740;-1.314;2023-02-12T06:53:17;102381.39;;;6.97;74.88
36454;BME280;22478;51.740;-1.314;2023-02-12T06:55:44;102387.46;;;7.27;73.71
36454;BME280;22478;51.740;-1.314;2023-02-12T06:58:12;102391.65;;;8.07;71.18
36454;BME280;22478;51.740;-1.314;2023-02-12T07:00:39;102393.12;;;6.85;75.81
36454;BME280;22478;51.740;-1.314;2023-02-12T07:03:07;102389.17;;;6.92;76.07
36454;BME280;22478;51.740;-1.314;2023-02-12T07:05:37;102391.63;;;6.73;74.03
36454;BME280;22478;51.740;-1.314;2023-02-12T07:08:05;102397.03;;;6.37;78.28
36454;BME280;22478;51.740;-1.314;2023-02-12T07:10:32;102403.08;;;6.64;77.00
36454;BME280;22478;51.740;-1.314;2023-02-12T07:12:59;102408.85;;;7.11;76.16
36454;BME280;22478;51.740;-1.314;2023-02-12T07:15:27;102415.37;;;6.03;78.36
36454;BME280;22478;51.740;-1.314;2023-02-12T07:17:54;102420.10;;;6.22;78.97
36454;BME280;22478;51.740;-1.314;2023-02-12T07:20:21;102417.81;;;6.14;80.80
36454;BME280;22478;51.740;-1.314;2023-02-12T07:22:49;102414.74;;;6.82;78.36
36454;BME280;22478;51.740;-1.314;2023-02-12T07:25:17;102412.73;;;6.99;78.34
36454;BME280;22478;51.740;-1.314;2023-02-12T07:27:44;102414.22;;;6.84;78.40
36454;BME280;22478;51.740;-1.314;2023-02-12T07:30:12;102414.37;;;7.08;75.70
36454;BME280;22478;51.740;-1.314;2023-02-12T07:32:40;102415.05;;;7.31;75.04
36454;BME280;22478;51.740;-1.314;2023-02-12T07:35:07;102416.56;;;7.70;73.91
36454;BME280;22478;51.740;-1.314;2023-02-12T07:37:35;102417.17;;;7.61;73.80
36454;BME280;22478;51.740;-1.314;2023-02-12T07:40:02;102418.00;;;6.98;76.14
36454;BME280;22478;51.740;-1.314;2023-02-12T07:42:29;102414.07;;;7.99;73.96
36454;BME280;22478;51.740;-1.314;2023-02-12T07:44:57;102416.80;;;7.06;76.43
36454;BME280;22478;51.740;-1.314;2023-02-12T07:47:24;102421.09;;;6.63;79.87
36454;BME280;22478;51.740;-1.314;2023-02-12T07:49:51;102427.80;;;6.96;80.39
36454;BME280;22478;51.740;-1.314;2023-02-12T07:52:20;102427.81;;;6.35;80.38
36454;BME280;22478;51.740;-1.314;2023-02-12T07:54:47;102425.36;;;7.39;77.77
36454;BME280;22478;51.740;-1.314;2023-02-12T07:57:14;102428.79;;;7.42;77.74
36454;BME280;22478;51.740;-1.314;2023-02-12T07:59:42;102430.43;;;6.71;80.91
36454;BME280;22478;51.740;-1.314;2023-02-12T08:02:09;102431.91;;;7.52;78.10
36454;BME280;22478;51.740;-1.314;2023-02-12T08:04:36;102432.49;;;6.52;82.48
36454;BME280;22478;51.740;-1.314;2023-02-12T08:07:04;102428.88;;;6.49;82.02
36454;BME280;22478;51.740;-1.314;2023-02-12T08:09:31;102435.99;;;6.40;85.11
36454;BME280;22478;51.740;-1.314;2023-02-12T08:11:58;102437.21;;;6.46;84.14
36454;BME280;22478;51.740;-1.314;2023-02-12T08:14:26;102445.26;;;5.79;87.00
36454;BME280;22478;51.740;-1.314;2023-02-12T08:16:53;102441.07;;;6.73;82.95
36454;BME280;22478;51.740;-1.314;2023-02-12T08:19:21;102442.63;;;5.81;83.94
36454;BME280;22478;51.740;-1.314;2023-02-12T08:21:49;102445.85;;;5.48;87.01
36454;BME280;22478;51.740;-1.314;2023-02-12T08:24:17;102443.46;;;5.22;90.87
36454;BME280;22478;51.740;-1.314;2023-02-12T08:26:44;102440.17;;;4.84;92.52
36454;BME280;22478;51.740;-1.314;2023-02-12T08:29:13;102437.79;;;5.50;87.40
36454;BME280;22478;51.740;-1.314;2023-02-12T08:31:44;102444.59;;;4.63;92.81
36454;BME280;22478;51.740;-1.314;2023-02-12T08:34:16;102449.24;;;5.28;89.92
36454;BME280;22478;51.740;-1.314;2023-02-12T08:36:45;102452.93;;;5.73;87.74
36454;BME280;22478;51.740;-1.314;2023-02-12T08:39:13;102447.14;;;6.78;83.55
36454;BME280;22478;51.740;-1.314;2023-02-12T08:41:42;102460.54;;;4.44;86.71
36454;BME280;22478;51.740;-1.314;2023-02-12T08:44:10;102451.76;;;6.15;82.97
36454;BME280;22478;51.740;-1.314;2023-02-12T08:46:39;102449.42;;;6.52;82.17
36454;BME280;22478;51.740;-1.314;2023-02-12T08:49:10;102456.13;;;5.57;85.97
36454;BME280;22478;51.740;-1.314;2023-02-12T08:51:40;102443.73;;;6.00;81.48
36454;BME280;22478;51.740;-1.314;2023-02-12T08:54:11;102444.61;;;6.88;78.80
36454;BME280;22478;51.740;-1.314;2023-02-12T08:56:39;102447.62;;;5.90;81.17
36454;BME280;22478;51.740;-1.314;2023-02-12T08:59:07;102449.51;;;5.72;82.37
36454;BME280;22478;51.740;-1.314;2023-02-12T09:01:36;102450.08;;;5.01;81.15
36454;BME280;22478;51.740;-1.314;2023-02-12T09:04:04;102447.59;;;5.82;78.74
36454;BME280;22478;51.740;-1.314;2023-02-12T09:06:33;102452.20;;;5.13;80.46
36454;BME280;22478;51.740;-1.314;2023-02-12T09:09:01;102454.14;;;5.42;80.00
36454;BME280;22478;51.740;-1.314;2023-02-12T09:11:29;102452.66;;;4.70;81.49
36454;BME280;22478;51.740;-1.314;2023-02-12T09:14:00;102447.48;;;6.51;77.03
36454;BME280;22478;51.740;-1.314;2023-02-12T09:16:34;102448.46;;;5.60;80.01
36454;BME280;22478;51.740;-1.314;2023-02-12T09:19:03;102450.47;;;5.81;80.41
36454;BME280;22478;51.740;-1.314;2023-02-12T09:21:30;102449.71;;;7.42;74.93
36454;BME280;22478;51.740;-1.314;2023-02-12T09:24:00;102445.84;;;7.22;74.11
36454;BME280;22478;51.740;-1.314;2023-02-12T09:26:28;102448.27;;;6.99;74.89
36454;BME280;22478;51.740;-1.314;2023-02-12T09:28:55;102451.77;;;5.79;74.11
36454;BME280;22478;51.740;-1.314;2023-02-12T09:31:29;102447.30;;;7.55;70.81
36454;BME280;22478;51.740;-1.314;2023-02-12T09:33:58;102445.40;;;5.94;73.29
36454;BME280;22478;51.740;-1.314;2023-02-12T09:36:27;102442.54;;;7.35;69.96
36454;BME280;22478;51.740;-1.314;2023-02-12T09:38:55;102446.14;;;7.67;69.73
36454;BME280;22478;51.740;-1.314;2023-02-12T09:42:05;102448.87;;;6.50;73.50
36454;BME280;22478;51.740;-1.314;2023-02-12T09:44:42;102449.72;;;6.22;75.42
36454;BME280;22478;51.740;-1.314;2023-02-12T09:47:22;102450.08;;;6.01;79.55
36454;BME280;22478;51.740;-1.314;2023-02-12T09:50:02;102446.70;;;5.95;81.04
36454;BME280;22478;51.740;-1.314;2023-02-12T09:52:33;102442.48;;;5.81;79.24
36454;BME280;22478;51.740;-1.314;2023-02-12T09:55:01;102454.14;;;4.39;85.60
36454;BME280;22478;51.740;-1.314;2023-02-12T09:57:30;102453.61;;;5.46;84.23
36454;BME280;22478;51.740;-1.314;2023-02-12T10:00:03;102456.61;;;3.85;95.02
36454;BME280;22478;51.740;-1.314;2023-02-12T10:02:34;102455.80;;;5.14;87.17
36454;BME280;22478;51.740;-1.314;2023-02-12T10:05:03;102445.26;;;5.40;80.73
36454;BME280;22478;51.740;-1.314;2023-02-12T10:07:51;102443.37;;;5.34;80.89
36454;BME280;22478;51.740;-1.314;2023-02-12T10:10:30;102439.57;;;6.28;76.17
36454;BME280;22478;51.740;-1.314;2023-02-12T10:13:06;102445.79;;;4.66;81.39
36454;BME280;22478;51.740;-1.314;2023-02-12T10:15:43;102444.86;;;4.19;89.10
36454;BME280;22478;51.740;-1.314;2023-02-12T10:18:33;102444.86;;;3.86;94.52
36454;BME280;22478;51.740;-1.314;2023-02-12T10:21:13;102451.21;;;4.94;91.94
36454;BME280;22478;51.740;-1.314;2023-02-12T10:23:57;102452.51;;;3.68;91.20
36454;BME280;22478;51.740;-1.314;2023-02-12T10:26:30;102448.14;;;4.23;92.10
36454;BME280;22478;51.740;-1.314;2023-02-12T10:29:04;102452.48;;;2.03;100.00
36454;BME280;22478;51.740;-1.314;2023-02-12T10:31:37;102445.29;;;4.59;91.10
36454;BME280;22478;51.740;-1.314;2023-02-12T10:34:15;102449.48;;;3.38;96.36
36454;BME280;22478;51.740;-1.314;2023-02-12T10:36:45;102446.46;;;5.39;86.07
36454;BME280;22478;51.740;-1.314;2023-02-12T10:39:20;102442.74;;;3.60;88.88
36454;BME280;22478;51.740;-1.314;2023-02-12T10:41:51;102445.45;;;5.24;85.30
36454;BME280;22478;51.740;-1.314;2023-02-12T10:44:21;102446.07;;;4.63;89.41
36454;BME280;22478;51.740;-1.314;2023-02-12T10:46:48;102444.60;;;4.72;88.76
36454;BME280;22478;51.740;-1.314;2023-02-12T10:49:17;102447.15;;;5.54;87.85
36454;BME280;22478;51.740;-1.314;2023-02-12T10:51:55;102446.91;;;4.09;92.77
36454;BME280;22478;51.740;-1.314;2023-02-12T10:54:35;102451.40;;;5.08;89.17
36454;BME280;22478;51.740;-1.314;2023-02-12T10:57:09;102449.20;;;5.20;86.19
36454;BME280;22478;51.740;-1.314;2023-02-12T10:59:38;102453.26;;;5.34;87.47
36454;BME280;22478;51.740;-1.314;2023-02-12T11:02:20;102452.41;;;4.59;90.21
36454;BME280;22478;51.740;-1.314;2023-02-12T11:04:48;102450.78;;;4.50;93.64
36454;BME280;22478;51.740;-1.314;2023-02-12T11:07:16;102450.83;;;4.35;91.74
36454;BME280;22478;51.740;-1.314;2023-02-12T11:09:45;102454.09;;;4.15;94.49
36454;BME280;22478;51.740;-1.314;2023-02-12T11:12:19;102458.63;;;3.59;99.80
36454;BME280;22478;51.740;-1.314;2023-02-12T11:14:48;102456.58;;;3.37;100.00
36454;BME280;22478;51.740;-1.314;2023-02-12T11:17:24;102444.54;;;4.78;94.65
36454;BME280;22478;51.740;-1.314;2023-02-12T11:20:21;102449.03;;;2.89;100.00
36454;BME280;22478;51.740;-1.314;2023-02-12T11:22:52;102447.16;;;4.74;96.03
36454;BME280;22478;51.740;-1.314;2023-02-12T11:25:21;102441.24;;;4.33;93.93
36454;BME280;22478;51.740;-1.314;2023-02-12T11:28:14;102442.84;;;4.30;95.47
36454;BME280;22478;51.740;-1.314;2023-02-12T11:30:49;102441.11;;;5.46;88.66
36454;BME280;22478;51.740;-1.314;2023-02-12T11:33:24;102431.53;;;6.55;83.76
36454;BME280;22478;51.740;-1.314;2023-02-12T11:35:54;102443.72;;;4.92;86.35
36454;BME280;22478;51.740;-1.314;2023-02-12T11:38:26;102443.08;;;6.50;82.77
36454;BME280;22478;51.740;-1.314;2023-02-12T11:40:57;102444.88;;;4.77;89.02
36454;BME280;22478;51.740;-1.314;2023-02-12T11:43:26;102434.08;;;6.41;80.49
36454;BME280;22478;51.740;-1.314;2023-02-12T11:45:55;102429.61;;;6.83;79.31
36454;BME280;22478;51.740;-1.314;2023-02-12T11:48:25;102428.84;;;6.26;79.22
36454;BME280;22478;51.740;-1.314;2023-02-12T11:50:57;102427.88;;;5.45;83.89
36454;BME280;22478;51.740;-1.314;2023-02-12T11:53:29;102426.90;;;5.83;84.49
36454;BME280;22478;51.740;-1.314;2023-02-12T11:55:59;102432.99;;;4.95;85.93
36454;BME280;22478;51.740;-1.314;2023-02-12T11:58:28;102423.63;;;6.33;82.38
36454;BME280;22478;51.740;-1.314;2023-02-12T12:01:04;102430.27;;;4.98;90.91
36454;BME280;22478;51.740;-1.314;2023-02-12T12:03:37;102424.66;;;5.58;87.20
36454;BME280;22478;51.740;-1.314;2023-02-12T12:06:16;102418.34;;;5.38;82.24
36454;BME280;22478;51.740;-1.314;2023-02-12T12:08:51;102410.58;;;6.34;78.12
36454;BME280;22478;51.740;-1.314;2023-02-12T12:11:25;102414.57;;;4.94;85.19
36454;BME280;22478;51.740;-1.314;2023-02-12T12:14:04;102410.42;;;5.14;90.99
36454;BME280;22478;51.740;-1.314;2023-02-12T12:16:40;102399.75;;;5.16;88.27
36454;BME280;22478;51.740;-1.314;2023-02-12T12:19:15;102406.46;;;5.43;89.38
36454;BME280;22478;51.740;-1.314;2023-02-12T12:21:53;102396.28;;;5.31;89.07
36454;BME280;22478;51.740;-1.314;2023-02-12T12:24:28;102387.40;;;5.37;84.20
36454;BME280;22478;51.740;-1.314;2023-02-12T12:27:02;102386.94;;;6.40;85.09
36454;BME280;22478;51.740;-1.314;2023-02-12T12:29:48;102395.94;;;3.85;91.24
36454;BME280;22478;51.740;-1.314;2023-02-12T12:32:18;102385.72;;;5.85;82.39
36454;BME280;22478;51.740;-1.314;2023-02-12T12:34:47;102390.82;;;4.23;87.92
36454;BME280;22478;51.740;-1.314;2023-02-12T12:37:24;102382.38;;;6.49;82.61
36454;BME280;22478;51.740;-1.314;2023-02-12T12:40:03;102379.92;;;5.65;87.33
36454;BME280;22478;51.740;-1.314;2023-02-12T12:43:02;102382.00;;;5.20;90.81
36454;BME280;22478;51.740;-1.314;2023-02-12T12:46:14;102372.31;;;5.40;81.67
36454;BME280;22478;51.740;-1.314;2023-02-12T12:48:55;102382.17;;;4.97;91.51
36454;BME280;22478;51.740;-1.314;2023-02-12T12:51:36;102379.37;;;4.87;97.68
36454;BME280;22478;51.740;-1.314;2023-02-12T12:54:20;102360.44;;;5.88;88.23
36454;BME280;22478;51.740;-1.314;2023-02-12T12:56:59;102361.61;;;4.58;88.23
36454;BME280;22478;51.740;-1.314;2023-02-12T12:59:58;102358.25;;;5.44;87.15
36454;BME280;22478;51.740;-1.314;2023-02-12T13:02:46;102357.63;;;6.61;85.31
36454;BME280;22478;51.740;-1.314;2023-02-12T13:05:41;102355.97;;;5.70;88.38
36454;BME280;22478;51.740;-1.314;2023-02-12T13:08:20;102353.05;;;6.08;88.34
36454;BME280;22478;51.740;-1.314;2023-02-12T13:10:56;102353.02;;;5.34;88.77
36454;BME280;22478;51.740;-1.314;2023-02-12T13:13:30;102355.62;;;6.27;85.74